sensor_id;sensor_type;location;lat;lon;timestamp;P1;durP1;ratioP1;P2;durP2;ratioP2
16286;SDS011;8251;53.568;10.018;2022-08-18T00:04:38;7.00;;;6.40;;
16286;SDS011;8251;53.568;10.018;2022-08-18T00:07:07;5.80;;;5.30;;
16286;SDS011;8251;53.568;10.018;2022-08-18T00:09:38;5.47;;;5.03;;
16286;SDS011;8251;53.568;10.018;2022-08-18T00:12:07;5.30;;;5.00;;
16286;SDS011;8251;53.568;10.018;2022-08-18T00:14:38;7.70;;;7.10;;
16286;SDS011;8251;53.568;10.018;2022-08-18T00:17:06;6.73;;;6.23;;
16286;SDS011;8251;53.568;10.018;2022-08-18T00:19:33;6.40;;;5.80;;
16286;SDS011;8251;53.568;10.018;2022-08-18T00:22:02;8.27;;;6.50;;
16286;SDS011;8251;53.568;10.018;2022-08-18T00:24:29;6.17;;;5.53;;
16286;SDS011;8251;53.568;10.018;2022-08-18T00:26:56;6.83;;;6.27;;
16286;SDS011;8251;53.568;10.018;2022-08-18T00:29:23;6.35;;;5.85;;
16286;SDS011;8251;53.568;10.018;2022-08-18T00:31:50;6.22;;;5.80;;
16286;SDS011;8251;53.568;10.018;2022-08-18T00:34:18;9.40;;;7.90;;
16286;SDS011;8251;53.568;10.018;2022-08-18T00:36:44;6.50;;;5.90;;
16286;SDS011;8251;53.568;10.018;2022-08-18T00:39:13;5.70;;;5.20;;
16286;SDS011;8251;53.568;10.018;2022-08-18T00:41:40;7.17;;;6.30;;
16286;SDS011;8251;53.568;10.018;2022-08-18T00:44:07;7.43;;;6.05;;
16286;SDS011;8251;53.568;10.018;2022-08-18T00:46:34;7.27;;;6.40;;
16286;SDS011;8251;53.568;10.018;2022-08-18T00:49:02;6.47;;;5.90;;
16286;SDS011;8251;53.568;10.018;2022-08-18T00:51:32;7.13;;;6.63;;
16286;SDS011;8251;53.568;10.018;2022-08-18T00:54:05;7.50;;;6.90;;
16286;SDS011;8251;53.568;10.018;2022-08-18T00:56:40;7.13;;;6.63;;
16286;SDS011;8251;53.568;10.018;2022-08-18T00:59:10;6.70;;;6.10;;
16286;SDS011;8251;53.568;10.018;2022-08-18T01:01:42;6.17;;;5.37;;
16286;SDS011;8251;53.568;10.018;2022-08-18T01:04:11;8.10;;;7.20;;
16286;SDS011;8251;53.568;10.018;2022-08-18T01:06:43;8.20;;;7.40;;
16286;SDS011;8251;53.568;10.018;2022-08-18T01:09:17;6.70;;;6.00;;
16286;SDS011;8251;53.568;10.018;2022-08-18T01:11:45;7.63;;;6.83;;
16286;SDS011;8251;53.568;10.018;2022-08-18T01:14:13;7.17;;;6.67;;
16286;SDS011;8251;53.568;10.018;2022-08-18T01:16:42;7.53;;;6.93;;
16286;SDS011;8251;53.568;10.018;2022-08-18T01:19:27;9.73;;;8.17;;
16286;SDS011;8251;53.568;10.018;2022-08-18T01:22:13;7.27;;;6.57;;
16286;SDS011;8251;53.568;10.018;2022-08-18T01:24:50;9.00;;;8.23;;
16286;SDS011;8251;53.568;10.018;2022-08-18T01:27:37;11.10;;;7.83;;
16286;SDS011;8251;53.568;10.018;2022-08-18T01:30:07;9.73;;;8.80;;
16286;SDS011;8251;53.568;10.018;2022-08-18T01:32:37;7.83;;;6.80;;
16286;SDS011;8251;53.568;10.018;2022-08-18T01:35:05;8.37;;;7.67;;
16286;SDS011;8251;53.568;10.018;2022-08-18T01:37:35;8.37;;;7.60;;
16286;SDS011;8251;53.568;10.018;2022-08-18T01:40:05;8.43;;;7.67;;
16286;SDS011;8251;53.568;10.018;2022-08-18T01:42:33;9.37;;;8.13;;
16286;SDS011;8251;53.568;10.018;2022-08-18T01:45:02;8.43;;;7.63;;
16286;SDS011;8251;53.568;10.018;2022-08-18T01:47:31;8.90;;;7.90;;
16286;SDS011;8251;53.568;10.018;2022-08-18T01:50:00;9.00;;;8.30;;
16286;SDS011;8251;53.568;10.018;2022-08-18T01:52:27;9.57;;;8.63;;
16286;SDS011;8251;53.568;10.018;2022-08-18T01:54:54;9.13;;;8.23;;
16286;SDS011;8251;53.568;10.018;2022-08-18T01:57:24;11.60;;;9.20;;
16286;SDS011;8251;53.568;10.018;2022-08-18T01:59:51;9.83;;;9.03;;
16286;SDS011;8251;53.568;10.018;2022-08-18T02:02:21;9.80;;;8.90;;
16286;SDS011;8251;53.568;10.018;2022-08-18T02:04:50;10.17;;;9.30;;
16286;SDS011;8251;53.568;10.018;2022-08-18T02:07:20;9.77;;;8.97;;
16286;SDS011;8251;53.568;10.018;2022-08-18T02:09:47;9.67;;;8.03;;
16286;SDS011;8251;53.568;10.018;2022-08-18T02:12:14;9.63;;;8.83;;
16286;SDS011;8251;53.568;10.018;2022-08-18T02:14:43;10.37;;;9.20;;
16286;SDS011;8251;53.568;10.018;2022-08-18T02:17:10;9.23;;;8.47;;
16286;SDS011;8251;53.568;10.018;2022-08-18T02:19:40;9.30;;;8.40;;
16286;SDS011;8251;53.568;10.018;2022-08-18T02:22:09;12.37;;;8.57;;
16286;SDS011;8251;53.568;10.018;2022-08-18T02:24:37;8.07;;;7.27;;
16286;SDS011;8251;53.568;10.018;2022-08-18T02:27:05;13.33;;;8.37;;
16286;SDS011;8251;53.568;10.018;2022-08-18T02:29:33;8.87;;;7.27;;
16286;SDS011;8251;53.568;10.018;2022-08-18T02:32:01;9.00;;;7.77;;
16286;SDS011;8251;53.568;10.018;2022-08-18T02:34:28;9.03;;;8.13;;
16286;SDS011;8251;53.568;10.018;2022-08-18T02:36:55;8.40;;;7.50;;
16286;SDS011;8251;53.568;10.018;2022-08-18T02:39:24;9.20;;;7.67;;
16286;SDS011;8251;53.568;10.018;2022-08-18T02:41:50;8.47;;;7.70;;
16286;SDS011;8251;53.568;10.018;2022-08-18T02:44:17;9.80;;;7.10;;
16286;SDS011;8251;53.568;10.018;2022-08-18T02:46:45;8.40;;;7.30;;
16286;SDS011;8251;53.568;10.018;2022-08-18T02:49:18;9.63;;;8.70;;
16286;SDS011;8251;53.568;10.018;2022-08-18T02:51:44;9.30;;;8.50;;
16286;SDS011;8251;53.568;10.018;2022-08-18T02:54:11;10.63;;;8.30;;
16286;SDS011;8251;53.568;10.018;2022-08-18T02:56:38;8.97;;;8.17;;
16286;SDS011;8251;53.568;10.018;2022-08-18T02:59:07;9.40;;;7.80;;
16286;SDS011;8251;53.568;10.018;2022-08-18T03:01:37;9.03;;;7.90;;
16286;SDS011;8251;53.568;10.018;2022-08-18T03:04:06;8.00;;;7.30;;
16286;SDS011;8251;53.568;10.018;2022-08-18T03:06:36;8.43;;;7.67;;
16286;SDS011;8251;53.568;10.018;2022-08-18T03:09:04;9.07;;;7.73;;
16286;SDS011;8251;53.568;10.018;2022-08-18T03:11:33;9.23;;;8.33;;
16286;SDS011;8251;53.568;10.018;2022-08-18T03:14:01;9.40;;;8.57;;
16286;SDS011;8251;53.568;10.018;2022-08-18T03:16:29;9.53;;;8.63;;
16286;SDS011;8251;53.568;10.018;2022-08-18T03:18:57;9.67;;;8.70;;
16286;SDS011;8251;53.568;10.018;2022-08-18T03:21:25;9.70;;;8.70;;
16286;SDS011;8251;53.568;10.018;2022-08-18T03:23:55;7.97;;;7.17;;
16286;SDS011;8251;53.568;10.018;2022-08-18T03:26:23;10.67;;;9.60;;
16286;SDS011;8251;53.568;10.018;2022-08-18T03:28:50;10.10;;;8.67;;
16286;SDS011;8251;53.568;10.018;2022-08-18T03:31:19;9.57;;;8.37;;
16286;SDS011;8251;53.568;10.018;2022-08-18T03:33:49;9.00;;;8.10;;
16286;SDS011;8251;53.568;10.018;2022-08-18T03:36:18;8.77;;;8.00;;
16286;SDS011;8251;53.568;10.018;2022-08-18T03:38:46;9.00;;;8.10;;
16286;SDS011;8251;53.568;10.018;2022-08-18T03:41:16;10.67;;;8.27;;
16286;SDS011;8251;53.568;10.018;2022-08-18T03:43:47;9.50;;;8.57;;
16286;SDS011;8251;53.568;10.018;2022-08-18T03:46:14;10.70;;;9.70;;
16286;SDS011;8251;53.568;10.018;2022-08-18T03:48:42;10.03;;;9.03;;
16286;SDS011;8251;53.568;10.018;2022-08-18T03:51:13;13.17;;;9.23;;
16286;SDS011;8251;53.568;10.018;2022-08-18T03:53:42;8.77;;;7.97;;
16286;SDS011;8251;53.568;10.018;2022-08-18T03:56:10;10.20;;;9.27;;
16286;SDS011;8251;53.568;10.018;2022-08-18T03:58:42;8.93;;;8.03;;
16286;SDS011;8251;53.568;10.018;2022-08-18T04:04:18;10.67;;;9.33;;
16286;SDS011;8251;53.568;10.018;2022-08-18T04:06:47;10.17;;;9.13;;
16286;SDS011;8251;53.568;10.018;2022-08-18T04:09:16;8.20;;;7.47;;
16286;SDS011;8251;53.568;10.018;2022-08-18T04:11:44;9.23;;;7.97;;
16286;SDS011;8251;53.568;10.018;2022-08-18T04:14:13;9.13;;;8.23;;
16286;SDS011;8251;53.568;10.018;2022-08-18T04:16:42;8.43;;;7.63;;
16286;SDS011;8251;53.568;10.018;2022-08-18T04:19:09;10.83;;;8.00;;
16286;SDS011;8251;53.568;10.018;2022-08-18T04:21:38;9.70;;;8.83;;
16286;SDS011;8251;53.568;10.018;2022-08-18T04:24:07;12.00;;;8.40;;
16286;SDS011;8251;53.568;10.018;2022-08-18T04:26:36;9.07;;;8.17;;
16286;SDS011;8251;53.568;10.018;2022-08-18T04:29:05;8.53;;;7.73;;
16286;SDS011;8251;53.568;10.018;2022-08-18T04:31:34;12.20;;;7.83;;
16286;SDS011;8251;53.568;10.018;2022-08-18T04:34:02;8.97;;;8.10;;
16286;SDS011;8251;53.568;10.018;2022-08-18T04:36:31;8.70;;;7.90;;
16286;SDS011;8251;53.568;10.018;2022-08-18T04:39:00;9.20;;;7.03;;
16286;SDS011;8251;53.568;10.018;2022-08-18T04:41:29;9.40;;;7.93;;
16286;SDS011;8251;53.568;10.018;2022-08-18T04:43:57;10.57;;;7.90;;
16286;SDS011;8251;53.568;10.018;2022-08-18T04:46:25;8.83;;;8.00;;
16286;SDS011;8251;53.568;10.018;2022-08-18T04:48:57;9.10;;;8.30;;
16286;SDS011;8251;53.568;10.018;2022-08-18T04:51:25;9.00;;;7.97;;
16286;SDS011;8251;53.568;10.018;2022-08-18T04:53:53;8.80;;;7.90;;
16286;SDS011;8251;53.568;10.018;2022-08-18T04:56:20;14.50;;;8.60;;
16286;SDS011;8251;53.568;10.018;2022-08-18T04:58:51;9.83;;;8.20;;
16286;SDS011;8251;53.568;10.018;2022-08-18T05:01:19;10.77;;;8.83;;
16286;SDS011;8251;53.568;10.018;2022-08-18T05:03:48;10.27;;;8.47;;
16286;SDS011;8251;53.568;10.018;2022-08-18T05:06:17;12.67;;;8.10;;
16286;SDS011;8251;53.568;10.018;2022-08-18T05:08:45;11.40;;;7.73;;
16286;SDS011;8251;53.568;10.018;2022-08-18T05:11:12;11.57;;;9.10;;
16286;SDS011;8251;53.568;10.018;2022-08-18T05:13:40;13.43;;;8.00;;
16286;SDS011;8251;53.568;10.018;2022-08-18T05:16:08;10.93;;;8.87;;
16286;SDS011;8251;53.568;10.018;2022-08-18T05:18:35;10.37;;;7.97;;
16286;SDS011;8251;53.568;10.018;2022-08-18T05:21:04;11.40;;;9.13;;
16286;SDS011;8251;53.568;10.018;2022-08-18T05:23:35;10.83;;;9.57;;
16286;SDS011;8251;53.568;10.018;2022-08-18T05:26:03;12.83;;;10.70;;
16286;SDS011;8251;53.568;10.018;2022-08-18T05:28:31;12.93;;;10.17;;
16286;SDS011;8251;53.568;10.018;2022-08-18T05:31:04;11.03;;;8.67;;
16286;SDS011;8251;53.568;10.018;2022-08-18T05:33:32;13.27;;;9.50;;
16286;SDS011;8251;53.568;10.018;2022-08-18T05:36:01;13.00;;;9.33;;
16286;SDS011;8251;53.568;10.018;2022-08-18T05:38:38;10.53;;;8.57;;
16286;SDS011;8251;53.568;10.018;2022-08-18T05:41:20;14.30;;;8.63;;
16286;SDS011;8251;53.568;10.018;2022-08-18T05:43:51;10.93;;;7.37;;
16286;SDS011;8251;53.568;10.018;2022-08-18T05:46:19;13.40;;;8.73;;
16286;SDS011;8251;53.568;10.018;2022-08-18T05:48:51;12.40;;;9.60;;
16286;SDS011;8251;53.568;10.018;2022-08-18T05:51:23;11.87;;;8.63;;
16286;SDS011;8251;53.568;10.018;2022-08-18T05:54:00;10.32;;;9.32;;
16286;SDS011;8251;53.568;10.018;2022-08-18T05:56:49;12.13;;;10.82;;
16286;SDS011;8251;53.568;10.018;2022-08-18T05:59:20;15.98;;;9.98;;
16286;SDS011;8251;53.568;10.018;2022-08-18T06:01:52;11.93;;;9.47;;
16286;SDS011;8251;53.568;10.018;2022-08-18T06:07:13;14.00;;;9.02;;
16286;SDS011;8251;53.568;10.018;2022-08-18T06:09:46;10.30;;;9.30;;
16286;SDS011;8251;53.568;10.018;2022-08-18T06:12:21;10.27;;;8.30;;
16286;SDS011;8251;53.568;10.018;2022-08-18T06:14:52;22.17;;;14.02;;
16286;SDS011;8251;53.568;10.018;2022-08-18T06:17:45;18.83;;;12.93;;
16286;SDS011;8251;53.568;10.018;2022-08-18T06:20:40;22.73;;;12.25;;
16286;SDS011;8251;53.568;10.018;2022-08-18T06:23:30;14.20;;;11.00;;
16286;SDS011;8251;53.568;10.018;2022-08-18T06:26:15;19.73;;;11.52;;
16286;SDS011;8251;53.568;10.018;2022-08-18T06:28:57;16.02;;;10.27;;
16286;SDS011;8251;53.568;10.018;2022-08-18T06:31:32;15.00;;;10.23;;
16286;SDS011;8251;53.568;10.018;2022-08-18T06:34:12;10.17;;;8.00;;
16286;SDS011;8251;53.568;10.018;2022-08-18T06:36:46;15.15;;;10.20;;
16286;SDS011;8251;53.568;10.018;2022-08-18T06:39:19;13.73;;;10.55;;
16286;SDS011;8251;53.568;10.018;2022-08-18T06:41:52;17.10;;;10.48;;
16286;SDS011;8251;53.568;10.018;2022-08-18T06:44:22;12.52;;;10.40;;
16286;SDS011;8251;53.568;10.018;2022-08-18T06:46:57;11.80;;;10.48;;
16286;SDS011;8251;53.568;10.018;2022-08-18T06:49:34;12.57;;;10.63;;
16286;SDS011;8251;53.568;10.018;2022-08-18T06:52:25;18.13;;;11.93;;
16286;SDS011;8251;53.568;10.018;2022-08-18T06:54:54;22.75;;;14.68;;
16286;SDS011;8251;53.568;10.018;2022-08-18T06:57:28;18.35;;;13.82;;
16286;SDS011;8251;53.568;10.018;2022-08-18T07:00:00;20.98;;;14.25;;
16286;SDS011;8251;53.568;10.018;2022-08-18T07:02:36;26.98;;;17.15;;
16286;SDS011;8251;53.568;10.018;2022-08-18T07:05:16;23.40;;;17.77;;
16286;SDS011;8251;53.568;10.018;2022-08-18T07:07:58;29.67;;;19.38;;
16286;SDS011;8251;53.568;10.018;2022-08-18T07:10:46;32.85;;;18.13;;
16286;SDS011;8251;53.568;10.018;2022-08-18T07:13:22;26.45;;;19.30;;
16286;SDS011;8251;53.568;10.018;2022-08-18T07:15:51;34.75;;;18.85;;
16286;SDS011;8251;53.568;10.018;2022-08-18T07:18:23;28.15;;;17.52;;
16286;SDS011;8251;53.568;10.018;2022-08-18T07:20:53;33.25;;;20.52;;
16286;SDS011;8251;53.568;10.018;2022-08-18T07:23:26;31.98;;;20.27;;
16286;SDS011;8251;53.568;10.018;2022-08-18T07:26:00;37.15;;;20.45;;
16286;SDS011;8251;53.568;10.018;2022-08-18T07:28:35;36.60;;;19.67;;
16286;SDS011;8251;53.568;10.018;2022-08-18T07:34:05;25.40;;;18.13;;
16286;SDS011;8251;53.568;10.018;2022-08-18T07:36:38;29.00;;;17.05;;
16286;SDS011;8251;53.568;10.018;2022-08-18T07:39:12;25.25;;;16.13;;
16286;SDS011;8251;53.568;10.018;2022-08-18T07:41:47;23.92;;;16.75;;
16286;SDS011;8251;53.568;10.018;2022-08-18T07:44:18;27.55;;;16.40;;
16286;SDS011;8251;53.568;10.018;2022-08-18T07:46:52;23.00;;;16.45;;
16286;SDS011;8251;53.568;10.018;2022-08-18T07:49:24;25.10;;;16.70;;
16286;SDS011;8251;53.568;10.018;2022-08-18T07:51:55;22.02;;;14.73;;
16286;SDS011;8251;53.568;10.018;2022-08-18T07:54:31;22.00;;;15.17;;
16286;SDS011;8251;53.568;10.018;2022-08-18T07:57:12;23.17;;;15.80;;
16286;SDS011;8251;53.568;10.018;2022-08-18T07:59:47;22.30;;;15.50;;
16286;SDS011;8251;53.568;10.018;2022-08-18T08:02:23;26.37;;;15.97;;
16286;SDS011;8251;53.568;10.018;2022-08-18T08:04:59;27.63;;;17.20;;
16286;SDS011;8251;53.568;10.018;2022-08-18T08:07:34;28.00;;;18.30;;
16286;SDS011;8251;53.568;10.018;2022-08-18T08:10:11;32.45;;;18.92;;
16286;SDS011;8251;53.568;10.018;2022-08-18T08:13:01;37.83;;;20.13;;
16286;SDS011;8251;53.568;10.018;2022-08-18T08:15:40;38.00;;;20.63;;
16286;SDS011;8251;53.568;10.018;2022-08-18T08:18:17;33.15;;;19.25;;
16286;SDS011;8251;53.568;10.018;2022-08-18T08:20:51;35.45;;;19.25;;
16286;SDS011;8251;53.568;10.018;2022-08-18T08:23:23;38.28;;;20.30;;
16286;SDS011;8251;53.568;10.018;2022-08-18T08:26:00;44.15;;;21.58;;
16286;SDS011;8251;53.568;10.018;2022-08-18T08:28:45;43.03;;;24.00;;
16286;SDS011;8251;53.568;10.018;2022-08-18T08:31:23;38.57;;;20.73;;
16286;SDS011;8251;53.568;10.018;2022-08-18T08:33:57;35.70;;;18.23;;
16286;SDS011;8251;53.568;10.018;2022-08-18T08:36:31;32.53;;;18.92;;
16286;SDS011;8251;53.568;10.018;2022-08-18T08:39:02;31.20;;;17.73;;
16286;SDS011;8251;53.568;10.018;2022-08-18T08:41:35;29.27;;;16.65;;
16286;SDS011;8251;53.568;10.018;2022-08-18T08:44:07;27.38;;;16.55;;
16286;SDS011;8251;53.568;10.018;2022-08-18T08:46:40;24.08;;;15.60;;
16286;SDS011;8251;53.568;10.018;2022-08-18T08:49:18;24.33;;;15.23;;
16286;SDS011;8251;53.568;10.018;2022-08-18T08:52:14;23.77;;;14.23;;
16286;SDS011;8251;53.568;10.018;2022-08-18T08:54:49;21.02;;;14.13;;
16286;SDS011;8251;53.568;10.018;2022-08-18T08:57:19;24.23;;;15.88;;
16286;SDS011;8251;53.568;10.018;2022-08-18T08:59:51;25.40;;;14.10;;
16286;SDS011;8251;53.568;10.018;2022-08-18T09:02:27;20.80;;;14.85;;
16286;SDS011;8251;53.568;10.018;2022-08-18T09:05:17;24.73;;;16.30;;
16286;SDS011;8251;53.568;10.018;2022-08-18T09:07:51;22.00;;;14.30;;
16286;SDS011;8251;53.568;10.018;2022-08-18T09:10:37;23.58;;;14.95;;
16286;SDS011;8251;53.568;10.018;2022-08-18T09:13:37;21.13;;;14.40;;
16286;SDS011;8251;53.568;10.018;2022-08-18T09:16:23;22.42;;;16.17;;
16286;SDS011;8251;53.568;10.018;2022-08-18T09:19:11;23.10;;;15.57;;
16286;SDS011;8251;53.568;10.018;2022-08-18T09:21:59;23.80;;;15.25;;
16286;SDS011;8251;53.568;10.018;2022-08-18T09:24:39;24.35;;;17.85;;
16286;SDS011;8251;53.568;10.018;2022-08-18T09:27:21;30.52;;;16.30;;
16286;SDS011;8251;53.568;10.018;2022-08-18T09:29:58;24.27;;;16.73;;
16286;SDS011;8251;53.568;10.018;2022-08-18T09:32:33;25.38;;;15.88;;
16286;SDS011;8251;53.568;10.018;2022-08-18T09:35:17;25.23;;;16.48;;
16286;SDS011;8251;53.568;10.018;2022-08-18T09:38:05;20.90;;;14.65;;
16286;SDS011;8251;53.568;10.018;2022-08-18T09:41:07;24.35;;;16.25;;
16286;SDS011;8251;53.568;10.018;2022-08-18T09:43:54;24.55;;;15.23;;
16286;SDS011;8251;53.568;10.018;2022-08-18T09:46:50;23.13;;;15.52;;
16286;SDS011;8251;53.568;10.018;2022-08-18T09:49:42;24.23;;;17.10;;
16286;SDS011;8251;53.568;10.018;2022-08-18T10:01:38;23.33;;;15.07;;
16286;SDS011;8251;53.568;10.018;2022-08-18T10:04:16;23.40;;;15.70;;
16286;SDS011;8251;53.568;10.018;2022-08-18T10:06:51;22.02;;;15.80;;
16286;SDS011;8251;53.568;10.018;2022-08-18T10:09:26;22.90;;;15.70;;
16286;SDS011;8251;53.568;10.018;2022-08-18T10:15:16;20.63;;;14.38;;
16286;SDS011;8251;53.568;10.018;2022-08-18T10:18:11;26.13;;;17.50;;
16286;SDS011;8251;53.568;10.018;2022-08-18T10:20:52;23.95;;;15.73;;
16286;SDS011;8251;53.568;10.018;2022-08-18T10:29:45;20.80;;;13.65;;
16286;SDS011;8251;53.568;10.018;2022-08-18T10:38:26;19.20;;;12.98;;
16286;SDS011;8251;53.568;10.018;2022-08-18T10:41:03;22.02;;;14.48;;
16286;SDS011;8251;53.568;10.018;2022-08-18T10:43:36;20.67;;;14.40;;
16286;SDS011;8251;53.568;10.018;2022-08-18T10:46:14;18.85;;;13.45;;
16286;SDS011;8251;53.568;10.018;2022-08-18T10:48:45;18.80;;;12.98;;
16286;SDS011;8251;53.568;10.018;2022-08-18T10:51:36;18.33;;;13.23;;
16286;SDS011;8251;53.568;10.018;2022-08-18T10:54:15;19.35;;;13.35;;
16286;SDS011;8251;53.568;10.018;2022-08-18T10:56:52;18.95;;;12.95;;
16286;SDS011;8251;53.568;10.018;2022-08-18T10:59:27;17.80;;;12.55;;
16286;SDS011;8251;53.568;10.018;2022-08-18T11:02:03;21.85;;;13.25;;
16286;SDS011;8251;53.568;10.018;2022-08-18T11:04:40;16.50;;;12.82;;
16286;SDS011;8251;53.568;10.018;2022-08-18T11:07:12;19.35;;;14.02;;
16286;SDS011;8251;53.568;10.018;2022-08-18T11:09:44;16.48;;;11.80;;
16286;SDS011;8251;53.568;10.018;2022-08-18T11:12:14;18.98;;;12.90;;
16286;SDS011;8251;53.568;10.018;2022-08-18T11:15:04;18.02;;;13.40;;
16286;SDS011;8251;53.568;10.018;2022-08-18T11:17:45;17.45;;;12.93;;
16286;SDS011;8251;53.568;10.018;2022-08-18T11:20:26;21.80;;;12.80;;
16286;SDS011;8251;53.568;10.018;2022-08-18T11:22:58;16.23;;;11.13;;
16286;SDS011;8251;53.568;10.018;2022-08-18T11:25:27;16.33;;;11.13;;
16286;SDS011;8251;53.568;10.018;2022-08-18T11:27:56;16.35;;;11.68;;
16286;SDS011;8251;53.568;10.018;2022-08-18T11:30:28;14.85;;;11.13;;
16286;SDS011;8251;53.568;10.018;2022-08-18T11:32:59;16.77;;;11.38;;
16286;SDS011;8251;53.568;10.018;2022-08-18T11:35:28;18.15;;;12.07;;
16286;SDS011;8251;53.568;10.018;2022-08-18T11:37:58;14.52;;;11.10;;
16286;SDS011;8251;53.568;10.018;2022-08-18T11:40:31;17.23;;;10.27;;
16286;SDS011;8251;53.568;10.018;2022-08-18T11:43:02;16.35;;;10.10;;
16286;SDS011;8251;53.568;10.018;2022-08-18T11:45:50;13.30;;;10.27;;
16286;SDS011;8251;53.568;10.018;2022-08-18T11:48:22;17.13;;;10.18;;
16286;SDS011;8251;53.568;10.018;2022-08-18T11:51:01;12.45;;;9.00;;
16286;SDS011;8251;53.568;10.018;2022-08-18T11:53:37;9.88;;;8.40;;
16286;SDS011;8251;53.568;10.018;2022-08-18T11:56:15;12.70;;;9.02;;
16286;SDS011;8251;53.568;10.018;2022-08-18T11:58:51;14.48;;;9.63;;
16286;SDS011;8251;53.568;10.018;2022-08-18T12:01:33;10.63;;;8.32;;
16286;SDS011;8251;53.568;10.018;2022-08-18T12:06:59;11.20;;;8.85;;
16286;SDS011;8251;53.568;10.018;2022-08-18T12:09:31;9.20;;;7.70;;
16286;SDS011;8251;53.568;10.018;2022-08-18T12:12:03;9.85;;;7.47;;
16286;SDS011;8251;53.568;10.018;2022-08-18T12:14:50;10.93;;;7.93;;
16286;SDS011;8251;53.568;10.018;2022-08-18T12:17:19;8.82;;;7.20;;
16286;SDS011;8251;53.568;10.018;2022-08-18T12:19:48;8.63;;;5.97;;
16286;SDS011;8251;53.568;10.018;2022-08-18T12:22:16;7.00;;;6.00;;
16286;SDS011;8251;53.568;10.018;2022-08-18T12:24:45;9.93;;;6.25;;
16286;SDS011;8251;53.568;10.018;2022-08-18T12:27:13;9.23;;;6.97;;
16286;SDS011;8251;53.568;10.018;2022-08-18T12:29:41;13.73;;;7.05;;
16286;SDS011;8251;53.568;10.018;2022-08-18T12:32:10;9.50;;;7.00;;
16286;SDS011;8251;53.568;10.018;2022-08-18T12:34:37;7.13;;;5.70;;
16286;SDS011;8251;53.568;10.018;2022-08-18T12:37:07;7.72;;;5.40;;
16286;SDS011;8251;53.568;10.018;2022-08-18T12:39:35;8.10;;;6.13;;
16286;SDS011;8251;53.568;10.018;2022-08-18T12:42:02;8.30;;;5.68;;
16286;SDS011;8251;53.568;10.018;2022-08-18T12:44:30;9.40;;;6.15;;
16286;SDS011;8251;53.568;10.018;2022-08-18T12:46:59;8.30;;;5.10;;
16286;SDS011;8251;53.568;10.018;2022-08-18T12:49:29;9.75;;;7.00;;
16286;SDS011;8251;53.568;10.018;2022-08-18T12:51:56;8.65;;;6.53;;
16286;SDS011;8251;53.568;10.018;2022-08-18T12:54:24;11.25;;;5.95;;
16286;SDS011;8251;53.568;10.018;2022-08-18T12:56:52;8.65;;;5.95;;
16286;SDS011;8251;53.568;10.018;2022-08-18T12:59:21;8.27;;;6.15;;
16286;SDS011;8251;53.568;10.018;2022-08-18T13:01:49;16.15;;;5.88;;
16286;SDS011;8251;53.568;10.018;2022-08-18T13:04:16;7.30;;;5.70;;
16286;SDS011;8251;53.568;10.018;2022-08-18T13:06:45;8.25;;;6.00;;
16286;SDS011;8251;53.568;10.018;2022-08-18T13:09:14;8.35;;;5.57;;
16286;SDS011;8251;53.568;10.018;2022-08-18T13:11:43;6.65;;;5.38;;
16286;SDS011;8251;53.568;10.018;2022-08-18T13:14:11;8.38;;;5.10;;
16286;SDS011;8251;53.568;10.018;2022-08-18T13:16:40;8.73;;;5.07;;
16286;SDS011;8251;53.568;10.018;2022-08-18T13:19:09;6.90;;;5.38;;
16286;SDS011;8251;53.568;10.018;2022-08-18T13:21:36;5.18;;;4.35;;
16286;SDS011;8251;53.568;10.018;2022-08-18T13:24:03;9.23;;;5.18;;
16286;SDS011;8251;53.568;10.018;2022-08-18T13:26:34;8.60;;;4.07;;
16286;SDS011;8251;53.568;10.018;2022-08-18T13:29:05;9.02;;;5.32;;
16286;SDS011;8251;53.568;10.018;2022-08-18T13:31:33;6.05;;;4.45;;
16286;SDS011;8251;53.568;10.018;2022-08-18T13:34:00;10.63;;;5.18;;
16286;SDS011;8251;53.568;10.018;2022-08-18T13:36:28;8.77;;;4.70;;
16286;SDS011;8251;53.568;10.018;2022-08-18T13:39:08;8.00;;;5.10;;
16286;SDS011;8251;53.568;10.018;2022-08-18T13:41:35;6.70;;;4.85;;
16286;SDS011;8251;53.568;10.018;2022-08-18T13:44:03;7.15;;;4.68;;
16286;SDS011;8251;53.568;10.018;2022-08-18T13:46:31;8.07;;;5.10;;
16286;SDS011;8251;53.568;10.018;2022-08-18T13:48:58;5.13;;;4.32;;
16286;SDS011;8251;53.568;10.018;2022-08-18T13:51:27;8.32;;;4.93;;
16286;SDS011;8251;53.568;10.018;2022-08-18T13:53:54;9.13;;;4.85;;
16286;SDS011;8251;53.568;10.018;2022-08-18T13:56:21;8.40;;;4.30;;
16286;SDS011;8251;53.568;10.018;2022-08-18T13:58:48;7.80;;;4.43;;
16286;SDS011;8251;53.568;10.018;2022-08-18T14:01:15;5.00;;;4.53;;
16286;SDS011;8251;53.568;10.018;2022-08-18T14:03:44;7.03;;;4.70;;
16286;SDS011;8251;53.568;10.018;2022-08-18T14:06:12;5.20;;;4.45;;
16286;SDS011;8251;53.568;10.018;2022-08-18T14:08:39;6.95;;;4.50;;
16286;SDS011;8251;53.568;10.018;2022-08-18T14:11:07;6.63;;;4.60;;
16286;SDS011;8251;53.568;10.018;2022-08-18T14:13:34;6.82;;;5.00;;
16286;SDS011;8251;53.568;10.018;2022-08-18T14:16:02;8.77;;;6.28;;
16286;SDS011;8251;53.568;10.018;2022-08-18T14:18:29;8.00;;;5.85;;
16286;SDS011;8251;53.568;10.018;2022-08-18T14:20:57;5.65;;;5.13;;
16286;SDS011;8251;53.568;10.018;2022-08-18T14:23:44;7.40;;;5.57;;
16286;SDS011;8251;53.568;10.018;2022-08-18T14:26:25;9.73;;;4.75;;
16286;SDS011;8251;53.568;10.018;2022-08-18T14:29:09;7.43;;;5.10;;
16286;SDS011;8251;53.568;10.018;2022-08-18T14:31:36;5.88;;;4.90;;
16286;SDS011;8251;53.568;10.018;2022-08-18T14:34:03;6.03;;;4.90;;
16286;SDS011;8251;53.568;10.018;2022-08-18T14:36:32;7.68;;;5.35;;
16286;SDS011;8251;53.568;10.018;2022-08-18T14:39:00;8.85;;;5.13;;
16286;SDS011;8251;53.568;10.018;2022-08-18T14:41:28;7.50;;;5.13;;
16286;SDS011;8251;53.568;10.018;2022-08-18T14:43:57;14.10;;;7.20;;
16286;SDS011;8251;53.568;10.018;2022-08-18T14:46:25;6.25;;;5.65;;
16286;SDS011;8251;53.568;10.018;2022-08-18T14:48:52;7.30;;;5.60;;
16286;SDS011;8251;53.568;10.018;2022-08-18T14:51:19;8.48;;;6.65;;
16286;SDS011;8251;53.568;10.018;2022-08-18T14:53:47;8.15;;;6.15;;
16286;SDS011;8251;53.568;10.018;2022-08-18T14:56:14;11.80;;;6.68;;
16286;SDS011;8251;53.568;10.018;2022-08-18T14:58:42;7.95;;;6.78;;
16286;SDS011;8251;53.568;10.018;2022-08-18T15:01:10;9.85;;;6.88;;
16286;SDS011;8251;53.568;10.018;2022-08-18T15:03:37;8.23;;;6.25;;
16286;SDS011;8251;53.568;10.018;2022-08-18T15:06:05;7.88;;;6.47;;
16286;SDS011;8251;53.568;10.018;2022-08-18T15:08:35;7.68;;;6.55;;
16286;SDS011;8251;53.568;10.018;2022-08-18T15:11:05;7.10;;;6.40;;
16286;SDS011;8251;53.568;10.018;2022-08-18T15:13:32;8.02;;;6.15;;
16286;SDS011;8251;53.568;10.018;2022-08-18T15:16:00;9.98;;;7.97;;
16286;SDS011;8251;53.568;10.018;2022-08-18T15:18:27;9.45;;;7.32;;
16286;SDS011;8251;53.568;10.018;2022-08-18T15:20:54;14.18;;;7.20;;
16286;SDS011;8251;53.568;10.018;2022-08-18T15:23:39;7.38;;;6.68;;
16286;SDS011;8251;53.568;10.018;2022-08-18T15:26:25;9.00;;;7.55;;
16286;SDS011;8251;53.568;10.018;2022-08-18T15:28:52;7.75;;;6.75;;
16286;SDS011;8251;53.568;10.018;2022-08-18T15:31:19;7.85;;;7.05;;
16286;SDS011;8251;53.568;10.018;2022-08-18T15:33:46;9.63;;;6.60;;
16286;SDS011;8251;53.568;10.018;2022-08-18T15:36:13;11.88;;;6.13;;
16286;SDS011;8251;53.568;10.018;2022-08-18T15:38:44;7.47;;;5.82;;
16286;SDS011;8251;53.568;10.018;2022-08-18T15:41:11;11.35;;;6.95;;
16286;SDS011;8251;53.568;10.018;2022-08-18T15:43:55;7.32;;;6.57;;
16286;SDS011;8251;53.568;10.018;2022-08-18T15:46:22;7.40;;;5.53;;